sensor_id;sensor_type;location;lat;lon;timestamp;P1;durP1;ratioP1;P2;durP2;ratioP2
19848;SDS011;10085;51.120;6.956;2023-06-14T00:04:17;7.75;;;5.60;;
19848;SDS011;10085;51.120;6.956;2023-06-14T00:09:22;8.82;;;5.63;;
19848;SDS011;10085;51.120;6.956;2023-06-14T00:14:25;8.82;;;5.05;;
19848;SDS011;10085;51.120;6.956;2023-06-14T00:19:29;7.75;;;5.60;;
19848;SDS011;10085;51.120;6.956;2023-06-14T00:24:34;8.32;;;5.57;;
19848;SDS011;10085;51.120;6.956;2023-06-14T00:29:36;8.18;;;5.90;;
19848;SDS011;10085;51.120;6.956;2023-06-14T00:34:41;7.38;;;5.93;;
19848;SDS011;10085;51.120;6.956;2023-06-14T00:39:43;7.80;;;5.53;;
19848;SDS011;10085;51.120;6.956;2023-06-14T00:44:46;7.75;;;5.43;;
19848;SDS011;10085;51.120;6.956;2023-06-14T00:49:50;8.45;;;5.60;;
19848;SDS011;10085;51.120;6.956;2023-06-14T00:54:53;7.03;;;5.68;;
19848;SDS011;10085;51.120;6.956;2023-06-14T00:59:57;7.28;;;5.40;;
19848;SDS011;10085;51.120;6.956;2023-06-14T01:05:01;6.88;;;5.32;;
19848;SDS011;10085;51.120;6.956;2023-06-14T01:10:08;7.57;;;5.85;;
19848;SDS011;10085;51.120;6.956;2023-06-14T01:15:22;6.53;;;5.40;;
19848;SDS011;10085;51.120;6.956;2023-06-14T01:20:27;7.97;;;5.50;;
19848;SDS011;10085;51.120;6.956;2023-06-14T01:25:32;8.48;;;5.35;;
19848;SDS011;10085;51.120;6.956;2023-06-14T01:30:37;6.35;;;5.22;;
19848;SDS011;10085;51.120;6.956;2023-06-14T01:35:41;7.10;;;5.22;;
19848;SDS011;10085;51.120;6.956;2023-06-14T01:40:46;6.60;;;5.22;;
19848;SDS011;10085;51.120;6.956;2023-06-14T01:45:49;6.70;;;5.30;;
19848;SDS011;10085;51.120;6.956;2023-06-14T01:50:53;7.18;;;5.22;;
19848;SDS011;10085;51.120;6.956;2023-06-14T01:55:57;9.77;;;4.82;;
19848;SDS011;10085;51.120;6.956;2023-06-14T02:01:00;5.78;;;4.60;;
19848;SDS011;10085;51.120;6.956;2023-06-14T02:06:03;6.32;;;5.00;;
19848;SDS011;10085;51.120;6.956;2023-06-14T02:11:08;8.18;;;5.30;;
19848;SDS011;10085;51.120;6.956;2023-06-14T02:16:11;6.93;;;4.88;;
19848;SDS011;10085;51.120;6.956;2023-06-14T02:21:14;5.88;;;4.70;;
19848;SDS011;10085;51.120;6.956;2023-06-14T02:26:21;5.72;;;4.72;;
19848;SDS011;10085;51.120;6.956;2023-06-14T02:31:24;7.57;;;5.00;;
19848;SDS011;10085;51.120;6.956;2023-06-14T02:36:28;5.32;;;4.22;;
19848;SDS011;10085;51.120;6.956;2023-06-14T02:41:35;5.68;;;4.45;;
19848;SDS011;10085;51.120;6.956;2023-06-14T02:46:38;8.68;;;4.40;;
19848;SDS011;10085;51.120;6.956;2023-06-14T02:51:41;5.20;;;4.28;;
19848;SDS011;10085;51.120;6.956;2023-06-14T02:56:45;8.05;;;4.28;;
19848;SDS011;10085;51.120;6.956;2023-06-14T03:01:48;9.05;;;4.28;;
19848;SDS011;10085;51.120;6.956;2023-06-14T03:06:51;7.75;;;4.50;;
19848;SDS011;10085;51.120;6.956;2023-06-14T03:11:58;4.75;;;4.07;;
19848;SDS011;10085;51.120;6.956;2023-06-14T03:17:01;6.25;;;4.03;;
19848;SDS011;10085;51.120;6.956;2023-06-14T03:22:08;6.47;;;4.50;;
19848;SDS011;10085;51.120;6.956;2023-06-14T03:27:15;6.70;;;4.10;;
19848;SDS011;10085;51.120;6.956;2023-06-14T03:32:20;8.50;;;4.47;;
19848;SDS011;10085;51.120;6.956;2023-06-14T03:37:23;5.15;;;3.85;;
19848;SDS011;10085;51.120;6.956;2023-06-14T03:42:28;5.75;;;3.85;;
19848;SDS011;10085;51.120;6.956;2023-06-14T03:47:32;5.65;;;3.97;;
19848;SDS011;10085;51.120;6.956;2023-06-14T03:52:35;5.63;;;3.85;;
19848;SDS011;10085;51.120;6.956;2023-06-14T03:57:39;5.97;;;3.90;;
19848;SDS011;10085;51.120;6.956;2023-06-14T04:02:46;7.22;;;4.10;;
19848;SDS011;10085;51.120;6.956;2023-06-14T04:07:49;6.53;;;4.07;;
19848;SDS011;10085;51.120;6.956;2023-06-14T04:12:53;4.93;;;3.80;;
19848;SDS011;10085;51.120;6.956;2023-06-14T04:17:56;5.82;;;4.25;;
19848;SDS011;10085;51.120;6.956;2023-06-14T04:23:10;6.78;;;4.10;;
19848;SDS011;10085;51.120;6.956;2023-06-14T04:28:15;7.00;;;3.92;;
19848;SDS011;10085;51.120;6.956;2023-06-14T04:33:20;7.43;;;3.90;;
19848;SDS011;10085;51.120;6.956;2023-06-14T04:38:24;4.85;;;3.75;;
19848;SDS011;10085;51.120;6.956;2023-06-14T04:43:30;4.95;;;3.67;;
19848;SDS011;10085;51.120;6.956;2023-06-14T04:48:40;4.75;;;3.72;;
19848;SDS011;10085;51.120;6.956;2023-06-14T04:53:44;4.13;;;3.35;;
19848;SDS011;10085;51.120;6.956;2023-06-14T04:58:49;3.92;;;3.53;;
19848;SDS011;10085;51.120;6.956;2023-06-14T05:03:52;5.15;;;3.75;;
19848;SDS011;10085;51.120;6.956;2023-06-14T05:08:55;4.32;;;3.67;;
19848;SDS011;10085;51.120;6.956;2023-06-14T05:14:00;4.15;;;3.45;;
19848;SDS011;10085;51.120;6.956;2023-06-14T05:19:03;3.95;;;3.53;;
19848;SDS011;10085;51.120;6.956;2023-06-14T05:24:06;4.75;;;3.70;;
19848;SDS011;10085;51.120;6.956;2023-06-14T05:29:11;4.88;;;3.90;;
19848;SDS011;10085;51.120;6.956;2023-06-14T05:34:14;7.28;;;3.92;;
19848;SDS011;10085;51.120;6.956;2023-06-14T05:39:17;3.78;;;3.38;;
19848;SDS011;10085;51.120;6.956;2023-06-14T05:44:21;5.97;;;3.72;;
19848;SDS011;10085;51.120;6.956;2023-06-14T05:49:24;4.75;;;3.67;;
19848;SDS011;10085;51.120;6.956;2023-06-14T05:54:26;6.03;;;3.65;;
19848;SDS011;10085;51.120;6.956;2023-06-14T05:59:30;6.60;;;3.78;;
19848;SDS011;10085;51.120;6.956;2023-06-14T06:04:33;4.75;;;3.42;;
19848;SDS011;10085;51.120;6.956;2023-06-14T06:09:36;4.60;;;3.78;;
19848;SDS011;10085;51.120;6.956;2023-06-14T06:14:40;6.40;;;3.28;;
19848;SDS011;10085;51.120;6.956;2023-06-14T06:19:43;5.35;;;3.20;;
19848;SDS011;10085;51.120;6.956;2023-06-14T06:24:45;6.68;;;3.58;;
19848;SDS011;10085;51.120;6.956;2023-06-14T06:29:50;4.82;;;3.80;;
19848;SDS011;10085;51.120;6.956;2023-06-14T06:34:53;7.10;;;4.25;;
19848;SDS011;10085;51.120;6.956;2023-06-14T06:39:56;6.75;;;4.18;;
19848;SDS011;10085;51.120;6.956;2023-06-14T06:45:00;8.10;;;4.20;;
19848;SDS011;10085;51.120;6.956;2023-06-14T06:50:03;5.70;;;3.40;;
19848;SDS011;10085;51.120;6.956;2023-06-14T06:55:08;4.85;;;3.25;;
19848;SDS011;10085;51.120;6.956;2023-06-14T07:00:14;3.78;;;3.00;;
19848;SDS011;10085;51.120;6.956;2023-06-14T07:05:18;4.50;;;2.92;;
19848;SDS011;10085;51.120;6.956;2023-06-14T07:10:21;4.72;;;2.70;;
19848;SDS011;10085;51.120;6.956;2023-06-14T07:15:27;3.63;;;2.60;;
19848;SDS011;10085;51.120;6.956;2023-06-14T07:20:30;6.18;;;2.60;;
19848;SDS011;10085;51.120;6.956;2023-06-14T07:25:34;3.30;;;2.47;;
19848;SDS011;10085;51.120;6.956;2023-06-14T07:30:38;3.00;;;2.33;;
19848;SDS011;10085;51.120;6.956;2023-06-14T07:35:41;3.67;;;2.20;;
19848;SDS011;10085;51.120;6.956;2023-06-14T07:40:44;4.70;;;2.33;;
19848;SDS011;10085;51.120;6.956;2023-06-14T07:45:48;4.53;;;2.20;;
19848;SDS011;10085;51.120;6.956;2023-06-14T07:51:07;4.30;;;2.13;;
19848;SDS011;10085;51.120;6.956;2023-06-14T07:56:10;2.78;;;1.90;;
19848;SDS011;10085;51.120;6.956;2023-06-14T08:01:14;2.30;;;1.92;;
19848;SDS011;10085;51.120;6.956;2023-06-14T08:06:18;3.35;;;1.98;;
19848;SDS011;10085;51.120;6.956;2023-06-14T08:11:21;2.47;;;1.98;;
19848;SDS011;10085;51.120;6.956;2023-06-14T08:16:27;2.72;;;1.77;;
19848;SDS011;10085;51.120;6.956;2023-06-14T08:21:29;2.45;;;1.83;;
19848;SDS011;10085;51.120;6.956;2023-06-14T08:26:34;3.58;;;1.92;;
19848;SDS011;10085;51.120;6.956;2023-06-14T08:31:39;2.30;;;1.80;;
19848;SDS011;10085;51.120;6.956;2023-06-14T08:36:42;2.47;;;1.90;;
19848;SDS011;10085;51.120;6.956;2023-06-14T08:41:46;2.15;;;1.85;;
19848;SDS011;10085;51.120;6.956;2023-06-14T08:46:50;2.85;;;2.00;;
19848;SDS011;10085;51.120;6.956;2023-06-14T08:51:56;5.45;;;1.75;;
19848;SDS011;10085;51.120;6.956;2023-06-14T08:57:00;2.10;;;1.90;;
19848;SDS011;10085;51.120;6.956;2023-06-14T09:02:04;2.50;;;1.88;;
19848;SDS011;10085;51.120;6.956;2023-06-14T09:07:13;2.30;;;2.00;;
19848;SDS011;10085;51.120;6.956;2023-06-14T09:12:16;2.92;;;2.10;;
19848;SDS011;10085;51.120;6.956;2023-06-14T09:17:20;2.45;;;1.90;;
19848;SDS011;10085;51.120;6.956;2023-06-14T09:22:26;3.83;;;1.92;;
19848;SDS011;10085;51.120;6.956;2023-06-14T09:27:32;2.15;;;1.95;;
19848;SDS011;10085;51.120;6.956;2023-06-14T09:32:38;4.18;;;1.95;;
19848;SDS011;10085;51.120;6.956;2023-06-14T09:37:42;2.20;;;1.80;;
19848;SDS011;10085;51.120;6.956;2023-06-14T09:42:45;2.28;;;1.77;;
19848;SDS011;10085;51.120;6.956;2023-06-14T09:47:49;2.20;;;2.00;;
19848;SDS011;10085;51.120;6.956;2023-06-14T09:53:07;3.33;;;2.00;;
19848;SDS011;10085;51.120;6.956;2023-06-14T09:58:13;2.65;;;1.98;;
19848;SDS011;10085;51.120;6.956;2023-06-14T10:03:19;2.55;;;2.10;;
19848;SDS011;10085;51.120;6.956;2023-06-14T10:08:24;5.97;;;1.85;;
19848;SDS011;10085;51.120;6.956;2023-06-14T10:13:31;2.70;;;1.80;;
19848;SDS011;10085;51.120;6.956;2023-06-14T10:18:40;5.03;;;2.20;;
19848;SDS011;10085;51.120;6.956;2023-06-14T10:23:46;3.80;;;2.00;;
19848;SDS011;10085;51.120;6.956;2023-06-14T10:28:57;3.38;;;1.98;;
19848;SDS011;10085;51.120;6.956;2023-06-14T10:34:02;2.30;;;1.77;;
19848;SDS011;10085;51.120;6.956;2023-06-14T10:39:06;3.42;;;2.05;;
19848;SDS011;10085;51.120;6.956;2023-06-14T10:49:51;2.55;;;2.00;;
19848;SDS011;10085;51.120;6.956;2023-06-14T10:55:01;3.63;;;1.70;;
19848;SDS011;10085;51.120;6.956;2023-06-14T11:00:11;2.78;;;1.92;;
19848;SDS011;10085;51.120;6.956;2023-06-14T11:05:21;5.05;;;1.90;;
19848;SDS011;10085;51.120;6.956;2023-06-14T11:10:28;2.10;;;1.80;;
19848;SDS011;10085;51.120;6.956;2023-06-14T11:15:38;1.90;;;1.70;;
19848;SDS011;10085;51.120;6.956;2023-06-14T11:20:48;3.08;;;2.03;;
19848;SDS011;10085;51.120;6.956;2023-06-14T11:25:51;1.60;;;1.50;;
19848;SDS011;10085;51.120;6.956;2023-06-14T11:30:59;2.10;;;1.80;;
19848;SDS011;10085;51.120;6.956;2023-06-14T11:36:06;2.00;;;1.80;;
19848;SDS011;10085;51.120;6.956;2023-06-14T11:41:10;2.50;;;1.65;;
19848;SDS011;10085;51.120;6.956;2023-06-14T11:46:13;1.98;;;1.77;;
19848;SDS011;10085;51.120;6.956;2023-06-14T11:51:18;2.08;;;1.88;;
19848;SDS011;10085;51.120;6.956;2023-06-14T11:56:21;2.42;;;1.67;;
19848;SDS011;10085;51.120;6.956;2023-06-14T12:01:25;2.75;;;1.70;;
19848;SDS011;10085;51.120;6.956;2023-06-14T12:06:30;1.50;;;1.40;;
19848;SDS011;10085;51.120;6.956;2023-06-14T12:11:37;1.95;;;1.75;;
19848;SDS011;10085;51.120;6.956;2023-06-14T12:16:40;2.78;;;1.60;;
19848;SDS011;10085;51.120;6.956;2023-06-14T12:21:46;1.73;;;1.63;;
19848;SDS011;10085;51.120;6.956;2023-06-14T12:26:52;1.90;;;1.52;;
19848;SDS011;10085;51.120;6.956;2023-06-14T12:31:55;1.83;;;1.63;;
19848;SDS011;10085;51.120;6.956;2023-06-14T12:36:59;1.80;;;1.70;;
19848;SDS011;10085;51.120;6.956;2023-06-14T12:42:03;2.03;;;1.60;;
19848;SDS011;10085;51.120;6.956;2023-06-14T12:47:06;3.58;;;1.60;;
19848;SDS011;10085;51.120;6.956;2023-06-14T12:52:11;1.85;;;1.52;;
19848;SDS011;10085;51.120;6.956;2023-06-14T12:57:14;4.25;;;1.42;;
19848;SDS011;10085;51.120;6.956;2023-06-14T13:02:17;2.50;;;1.65;;
19848;SDS011;10085;51.120;6.956;2023-06-14T13:07:27;2.33;;;1.52;;
19848;SDS011;10085;51.120;6.956;2023-06-14T13:12:30;1.85;;;1.50;;
19848;SDS011;10085;51.120;6.956;2023-06-14T13:17:33;1.65;;;1.55;;
19848;SDS011;10085;51.120;6.956;2023-06-14T13:22:41;1.58;;;1.48;;
19848;SDS011;10085;51.120;6.956;2023-06-14T13:27:44;1.50;;;1.40;;
19848;SDS011;10085;51.120;6.956;2023-06-14T13:32:47;1.52;;;1.40;;
19848;SDS011;10085;51.120;6.956;2023-06-14T13:37:52;1.52;;;1.42;;
19848;SDS011;10085;51.120;6.956;2023-06-14T13:42:55;2.33;;;1.60;;
19848;SDS011;10085;51.120;6.956;2023-06-14T13:47:58;1.65;;;1.48;;
19848;SDS011;10085;51.120;6.956;2023-06-14T13:53:03;1.90;;;1.70;;
19848;SDS011;10085;51.120;6.956;2023-06-14T13:58:06;2.08;;;1.70;;
19848;SDS011;10085;51.120;6.956;2023-06-14T14:03:08;3.63;;;1.80;;
19848;SDS011;10085;51.120;6.956;2023-06-14T14:08:12;2.35;;;1.50;;
19848;SDS011;10085;51.120;6.956;2023-06-14T14:13:15;2.28;;;1.85;;
19848;SDS011;10085;51.120;6.956;2023-06-14T14:18:18;2.05;;;1.70;;
19848;SDS011;10085;51.120;6.956;2023-06-14T14:23:24;4.20;;;1.98;;
19848;SDS011;10085;51.120;6.956;2023-06-14T14:28:26;2.50;;;1.80;;
19848;SDS011;10085;51.120;6.956;2023-06-14T14:33:29;3.83;;;1.80;;
19848;SDS011;10085;51.120;6.956;2023-06-14T14:38:34;2.05;;;1.60;;
19848;SDS011;10085;51.120;6.956;2023-06-14T14:43:36;3.20;;;1.85;;
19848;SDS011;10085;51.120;6.956;2023-06-14T14:48:39;7.63;;;2.28;;
19848;SDS011;10085;51.120;6.956;2023-06-14T14:53:43;3.78;;;2.10;;
19848;SDS011;10085;51.120;6.956;2023-06-14T14:58:46;3.50;;;2.08;;
19848;SDS011;10085;51.120;6.956;2023-06-14T15:03:50;2.65;;;1.88;;
19848;SDS011;10085;51.120;6.956;2023-06-14T15:09:01;2.30;;;1.80;;
19848;SDS011;10085;51.120;6.956;2023-06-14T15:14:04;2.20;;;2.00;;
19848;SDS011;10085;51.120;6.956;2023-06-14T15:19:07;3.20;;;1.92;;
19848;SDS011;10085;51.120;6.956;2023-06-14T15:24:11;2.40;;;2.20;;
19848;SDS011;10085;51.120;6.956;2023-06-14T15:29:14;2.85;;;2.10;;
19848;SDS011;10085;51.120;6.956;2023-06-14T15:34:17;2.75;;;2.10;;
19848;SDS011;10085;51.120;6.956;2023-06-14T15:39:21;2.70;;;2.20;;
19848;SDS011;10085;51.120;6.956;2023-06-14T15:44:25;5.22;;;2.40;;
19848;SDS011;10085;51.120;6.956;2023-06-14T15:49:28;2.47;;;1.95;;
19848;SDS011;10085;51.120;6.956;2023-06-14T15:54:32;1.88;;;1.70;;
19848;SDS011;10085;51.120;6.956;2023-06-14T15:59:35;1.80;;;1.63;;
19848;SDS011;10085;51.120;6.956;2023-06-14T16:04:38;2.20;;;1.90;;
19848;SDS011;10085;51.120;6.956;2023-06-14T16:09:42;2.03;;;1.83;;
19848;SDS011;10085;51.120;6.956;2023-06-14T16:14:45;1.83;;;1.63;;
19848;SDS011;10085;51.120;6.956;2023-06-14T16:19:48;2.92;;;1.90;;
19848;SDS011;10085;51.120;6.956;2023-06-14T16:24:52;2.63;;;2.20;;
19848;SDS011;10085;51.120;6.956;2023-06-14T16:29:55;4.55;;;1.90;;
19848;SDS011;10085;51.120;6.956;2023-06-14T16:34:58;4.90;;;2.30;;
19848;SDS011;10085;51.120;6.956;2023-06-14T16:40:07;2.78;;;2.13;;
19848;SDS011;10085;51.120;6.956;2023-06-14T16:45:20;2.55;;;2.35;;
19848;SDS011;10085;51.120;6.956;2023-06-14T16:50:24;2.63;;;2.28;;
19848;SDS011;10085;51.120;6.956;2023-06-14T16:55:28;2.72;;;2.42;;
19848;SDS011;10085;51.120;6.956;2023-06-14T17:00:32;3.17;;;2.40;;
19848;SDS011;10085;51.120;6.956;2023-06-14T17:05:35;2.75;;;2.30;;
19848;SDS011;10085;51.120;6.956;2023-06-14T17:10:39;2.40;;;2.20;;
19848;SDS011;10085;51.120;6.956;2023-06-14T17:15:42;3.60;;;2.60;;
19848;SDS011;10085;51.120;6.956;2023-06-14T17:20:46;2.97;;;2.60;;
19848;SDS011;10085;51.120;6.956;2023-06-14T17:25:54;4.32;;;2.42;;
19848;SDS011;10085;51.120;6.956;2023-06-14T17:30:56;3.00;;;2.70;;
19848;SDS011;10085;51.120;6.956;2023-06-14T17:35:59;3.08;;;2.25;;
19848;SDS011;10085;51.120;6.956;2023-06-14T17:41:04;3.17;;;2.53;;
19848;SDS011;10085;51.120;6.956;2023-06-14T17:46:10;4.05;;;2.80;;
19848;SDS011;10085;51.120;6.956;2023-06-14T17:51:13;3.03;;;2.55;;
19848;SDS011;10085;51.120;6.956;2023-06-14T17:56:19;3.00;;;2.70;;
19848;SDS011;10085;51.120;6.956;2023-06-14T18:01:22;4.05;;;2.60;;
19848;SDS011;10085;51.120;6.956;2023-06-14T18:06:26;3.10;;;2.80;;
19848;SDS011;10085;51.120;6.956;2023-06-14T18:11:30;3.38;;;2.70;;
19848;SDS011;10085;51.120;6.956;2023-06-14T18:16:34;3.00;;;2.60;;
19848;SDS011;10085;51.120;6.956;2023-06-14T18:21:37;2.80;;;2.50;;
19848;SDS011;10085;51.120;6.956;2023-06-14T18:26:42;3.25;;;2.90;;
19848;SDS011;10085;51.120;6.956;2023-06-14T18:31:45;3.08;;;2.70;;
19848;SDS011;10085;51.120;6.956;2023-06-14T18:36:48;2.50;;;2.30;;
19848;SDS011;10085;51.120;6.956;2023-06-14T18:41:52;3.45;;;2.88;;
19848;SDS011;10085;51.120;6.956;2023-06-14T18:46:55;3.28;;;2.65;;
19848;SDS011;10085;51.120;6.956;2023-06-14T18:51:58;3.35;;;2.90;;
19848;SDS011;10085;51.120;6.956;2023-06-14T18:57:02;3.75;;;2.80;;
19848;SDS011;10085;51.120;6.956;2023-06-14T19:02:11;3.17;;;2.72;;
19848;SDS011;10085;51.120;6.956;2023-06-14T19:07:14;3.40;;;2.50;;
19848;SDS011;10085;51.120;6.956;2023-06-14T19:12:18;3.50;;;2.80;;
19848;SDS011;10085;51.120;6.956;2023-06-14T19:17:21;4.25;;;2.85;;
19848;SDS011;10085;51.120;6.956;2023-06-14T19:22:23;4.40;;;2.60;;
19848;SDS011;10085;51.120;6.956;2023-06-14T19:27:28;2.72;;;2.47;;
19848;SDS011;10085;51.120;6.956;2023-06-14T19:32:36;2.58;;;2.38;;
19848;SDS011;10085;51.120;6.956;2023-06-14T19:37:39;2.90;;;2.60;;
19848;SDS011;10085;51.120;6.956;2023-06-14T19:42:44;2.83;;;2.53;;
19848;SDS011;10085;51.120;6.956;2023-06-14T19:47:46;4.53;;;2.38;;
19848;SDS011;10085;51.120;6.956;2023-06-14T19:52:49;2.97;;;2.50;;
19848;SDS011;10085;51.120;6.956;2023-06-14T19:57:55;2.75;;;2.50;;
19848;SDS011;10085;51.120;6.956;2023-06-14T20:02:58;3.83;;;2.60;;
19848;SDS011;10085;51.120;6.956;2023-06-14T20:08:01;2.63;;;2.22;;
19848;SDS011;10085;51.120;6.956;2023-06-14T20:13:07;2.85;;;2.47;;
19848;SDS011;10085;51.120;6.956;2023-06-14T20:18:10;4.25;;;2.50;;
19848;SDS011;10085;51.120;6.956;2023-06-14T20:23:14;2.65;;;2.40;;
19848;SDS011;10085;51.120;6.956;2023-06-14T20:28:18;2.45;;;2.20;;
19848;SDS011;10085;51.120;6.956;2023-06-14T20:33:21;2.63;;;2.20;;
19848;SDS011;10085;51.120;6.956;2023-06-14T20:38:24;2.75;;;2.50;;
19848;SDS011;10085;51.120;6.956;2023-06-14T20:43:28;3.38;;;2.33;;
19848;SDS011;10085;51.120;6.956;2023-06-14T20:48:31;2.97;;;2.30;;
19848;SDS011;10085;51.120;6.956;2023-06-14T20:53:34;4.90;;;2.30;;
19848;SDS011;10085;51.120;6.956;2023-06-14T20:58:38;3.42;;;2.50;;
19848;SDS011;10085;51.120;6.956;2023-06-14T21:03:41;3.42;;;2.50;;
19848;SDS011;10085;51.120;6.956;2023-06-14T21:08:44;3.45;;;2.20;;
19848;SDS011;10085;51.120;6.956;2023-06-14T21:13:48;3.45;;;2.50;;
19848;SDS011;10085;51.120;6.956;2023-06-14T21:18:51;3.15;;;2.55;;
19848;SDS011;10085;51.120;6.956;2023-06-14T21:23:54;2.72;;;2.35;;
19848;SDS011;10085;51.120;6.956;2023-06-14T21:28:58;4.85;;;2.70;;
19848;SDS011;10085;51.120;6.956;2023-06-14T21:34:02;3.50;;;2.60;;
19848;SDS011;10085;51.120;6.956;2023-06-14T21:39:06;2.78;;;2.20;;
19848;SDS011;10085;51.120;6.956;2023-06-14T21:44:10;3.45;;;2.40;;
19848;SDS011;10085;51.120;6.956;2023-06-14T21:49:13;3.13;;;2.30;;
19848;SDS011;10085;51.120;6.956;2023-06-14T21:54:16;3.60;;;2.42;;
19848;SDS011;10085;51.120;6.956;2023-06-14T21:59:20;3.00;;;2.42;;
19848;SDS011;10085;51.120;6.956;2023-06-14T22:04:23;4.30;;;2.28;;
19848;SDS011;10085;51.120;6.956;2023-06-14T22:09:26;2.70;;;2.50;;
19848;SDS011;10085;51.120;6.956;2023-06-14T22:14:30;2.60;;;2.40;;
19848;SDS011;10085;51.120;6.956;2023-06-14T22:19:35;2.50;;;2.30;;
19848;SDS011;10085;51.120;6.956;2023-06-14T22:24:38;3.20;;;2.60;;
19848;SDS011;10085;51.120;6.956;2023-06-14T22:29:43;2.40;;;2.20;;
19848;SDS011;10085;51.120;6.956;2023-06-14T22:34:46;3.45;;;2.35;;
19848;SDS011;10085;51.120;6.956;2023-06-14T22:39:49;2.90;;;2.53;;
19848;SDS011;10085;51.120;6.956;2023-06-14T22:45:20;2.22;;;2.03;;
19848;SDS011;10085;51.120;6.956;2023-06-14T22:50:29;4.22;;;2.35;;
19848;SDS011;10085;51.120;6.956;2023-06-14T22:55:32;4.43;;;2.35;;
19848;SDS011;10085;51.120;6.956;2023-06-14T23:00:36;3.50;;;2.42;;
19848;SDS011;10085;51.120;6.956;2023-06-14T23:05:40;2.50;;;2.30;;
19848;SDS011;10085;51.120;6.956;2023-06-14T23:10:43;3.65;;;2.35;;
19848;SDS011;10085;51.120;6.956;2023-06-14T23:15:48;2.90;;;2.33;;
19848;SDS011;10085;51.120;6.956;2023-06-14T23:20:51;3.90;;;2.35;;
19848;SDS011;10085;51.120;6.956;2023-06-14T23:25:54;3.88;;;2.45;;
19848;SDS011;10085;51.120;6.956;2023-06-14T23:30:58;2.95;;;2.40;;
19848;SDS011;10085;51.120;6.956;2023-06-14T23:36:01;5.43;;;2.35;;
19848;SDS011;10085;51.120;6.956;2023-06-14T23:41:05;2.60;;;2.40;;
19848;SDS011;10085;51.120;6.956;2023-06-14T23:46:10;3.53;;;2.30;;
19848;SDS011;10085;51.120;6.956;2023-06-14T23:51:13;3.03;;;2.50;;
19848;SDS011;10085;51.120;6.956;2023-06-14T23:56:17;2.40;;;2.20;;
